Time;durP1;ratioP1;P1;durP2;ratioP2;P2;SDS_P1;SDS_P2;PMS_P1;PMS_P2;Temp;Humidity;BMP_temperature;BMP_pressure;BME280_temperature;BME280_humidity;BME280_pressure;Samples;Min_cycle;Max_cycle;Signal;HPM_P1;HPM_P2
2023/04/09 00:02:18;;;;;;;44.83;33.10;;;;;;;;;;5054493;28;20548;-61
2023/04/09 00:04:45;;;;;;;49.05;34.95;;;;;;;;;;5054592;28;20285;-61
2023/04/09 00:07:12;;;;;;;47.72;35.10;;;;;;;;;;5054753;28;20491;-61
2023/04/09 00:09:39;;;;;;;43.20;33.80;;;;;;;;;;5054334;28;20245;-61
2023/04/09 00:12:06;;;;;;;53.58;34.60;;;;;;;;;;5054367;28;20187;-61
2023/04/09 00:14:33;;;;;;;53.53;33.53;;;;;;;;;;5054445;28;20194;-61
2023/04/09 00:17:01;;;;;;;39.25;30.30;;;;;;;;;;5054363;28;20581;-61
2023/04/09 00:19:28;;;;;;;44.40;30.95;;;;;;;;;;5054382;28;20285;-61
2023/04/09 00:21:55;;;;;;;44.70;31.83;;;;;;;;;;5054332;28;20190;-61
2023/04/09 00:24:22;;;;;;;38.60;29.55;;;;;;;;;;5054142;28;20587;-61
2023/04/09 00:26:49;;;;;;;39.33;29.38;;;;;;;;;;5053959;28;20214;-61
2023/04/09 00:29:16;;;;;;;39.20;29.30;;;;;;;;;;5054264;28;20186;-61
2023/04/09 00:31:43;;;;;;;35.92;29.27;;;;;;;;;;5054194;28;20545;-61
2023/04/09 00:34:11;;;;;;;38.90;26.80;;;;;;;;;;5054072;28;20186;-61
2023/04/09 00:36:38;;;;;;;37.78;27.73;;;;;;;;;;5053789;28;20229;-61
2023/04/09 00:39:05;;;;;;;35.13;25.42;;;;;;;;;;5053874;28;20328;-61
2023/04/09 00:41:32;;;;;;;39.08;30.35;;;;;;;;;;5053675;28;20571;-61
2023/04/09 00:43:59;;;;;;;39.03;30.90;;;;;;;;;;5053676;28;20226;-61
2023/04/09 00:46:26;;;;;;;39.05;29.42;;;;;;;;;;5053871;28;20282;-62
2023/04/09 00:48:53;;;;;;;58.80;39.92;;;;;;;;;;5053820;28;20186;-61
2023/04/09 00:51:21;;;;;;;56.45;38.05;;;;;;;;;;5053861;28;20277;-61
2023/04/09 00:53:48;;;;;;;53.53;35.35;;;;;;;;;;5053717;28;20198;-61
2023/04/09 00:56:16;;;;;;;45.67;31.77;;;;;;;;;;5053550;28;20320;-61
2023/04/09 00:58:43;;;;;;;41.92;29.83;;;;;;;;;;5053697;28;20198;-61
2023/04/09 01:01:10;;;;;;;45.60;31.42;;;;;;;;;;5053492;28;20194;-61
2023/04/09 01:03:37;;;;;;;35.60;26.95;;;;;;;;;;5053504;28;20224;-61
2023/04/09 01:06:08;;;;;;;43.58;29.33;;;;;;;;;;5053394;28;20190;-61
2023/04/09 01:08:42;;;;;;;39.30;28.83;;;;;;;;;;5053150;28;20198;-61
2023/04/09 01:11:15;;;;;;;32.53;24.13;;;;;;;;;;5053423;28;20594;-61
2023/04/09 01:13:47;;;;;;;34.50;25.00;;;;;;;;;;5053153;28;20195;-61
2023/04/09 01:16:16;;;;;;;34.03;25.13;;;;;;;;;;5053249;28;20208;-61
2023/04/09 01:18:44;;;;;;;33.20;23.58;;;;;;;;;;5052949;28;20344;-61
2023/04/09 01:21:13;;;;;;;35.83;25.92;;;;;;;;;;5052956;28;20226;-61
2023/04/09 01:23:47;;;;;;;33.40;27.00;;;;;;;;;;5053173;28;20248;-61
2023/04/09 01:26:19;;;;;;;37.13;26.25;;;;;;;;;;5052997;28;20233;-61
2023/04/09 01:28:49;;;;;;;36.05;27.73;;;;;;;;;;5053039;28;20201;-61
2023/04/09 01:31:18;;;;;;;49.95;32.25;;;;;;;;;;5052846;28;20199;-61
2023/04/09 01:33:46;;;;;;;44.63;31.70;;;;;;;;;;5053133;28;20645;-61
2023/04/09 01:36:13;;;;;;;42.72;29.67;;;;;;;;;;5052951;28;20193;-61
2023/04/09 01:38:41;;;;;;;45.13;30.63;;;;;;;;;;5052841;28;20225;-61
2023/04/09 01:41:10;;;;;;;52.00;33.08;;;;;;;;;;5053003;28;20212;-61
2023/04/09 01:43:37;;;;;;;43.45;32.50;;;;;;;;;;5052627;28;20305;-61
2023/04/09 01:46:06;;;;;;;54.25;35.75;;;;;;;;;;5052593;28;20281;-61
2023/04/09 01:48:33;;;;;;;43.38;31.00;;;;;;;;;;5052712;28;20285;-61
2023/04/09 01:51:00;;;;;;;38.70;28.38;;;;;;;;;;5052538;28;20204;-61
2023/04/09 01:53:27;;;;;;;42.30;27.38;;;;;;;;;;5052668;28;20280;-61
2023/04/09 01:55:55;;;;;;;36.90;26.52;;;;;;;;;;5052538;28;20198;-62
2023/04/09 01:58:22;;;;;;;36.75;26.92;;;;;;;;;;5052161;28;20210;-61
2023/04/09 02:00:49;;;;;;;41.10;29.75;;;;;;;;;;5052475;28;20198;-61
2023/04/09 02:03:19;;;;;;;33.17;23.45;;;;;;;;;;5052502;28;20244;-61
2023/04/09 02:05:48;;;;;;;31.67;24.38;;;;;;;;;;5052539;28;20577;-62
2023/04/09 02:08:20;;;;;;;32.65;24.88;;;;;;;;;;5052282;28;20189;-61
2023/04/09 02:10:52;;;;;;;39.95;27.42;;;;;;;;;;5052447;28;20668;-61
2023/04/09 02:13:19;;;;;;;34.28;24.88;;;;;;;;;;5052709;28;20197;-61
2023/04/09 02:15:47;;;;;;;36.03;26.63;;;;;;;;;;5052499;28;20218;-61
2023/04/09 02:18:26;;;;;;;34.40;24.30;;;;;;;;;;5052258;28;20312;-61
2023/04/09 02:20:53;;;;;;;32.72;24.85;;;;;;;;;;5052694;28;20197;-61
2023/04/09 02:23:20;;;;;;;34.92;25.25;;;;;;;;;;5056214;28;20261;-61
2023/04/09 02:25:46;;;;;;;33.33;25.38;;;;;;;;;;5056277;28;20296;-61
2023/04/09 02:28:14;;;;;;;35.60;25.27;;;;;;;;;;5056275;28;20192;-61
2023/04/09 02:30:41;;;;;;;32.15;24.02;;;;;;;;;;5056342;28;20320;-61
2023/04/09 02:33:08;;;;;;;35.53;26.58;;;;;;;;;;5056071;28;20619;-61
2023/04/09 02:35:36;;;;;;;32.55;23.90;;;;;;;;;;5056111;28;20528;-61
2023/04/09 02:38:03;;;;;;;31.98;25.52;;;;;;;;;;5055890;28;20308;-61
2023/04/09 02:40:30;;;;;;;31.55;23.88;;;;;;;;;;5056256;28;20277;-62
2023/04/09 02:42:58;;;;;;;32.10;24.58;;;;;;;;;;5055819;28;20279;-61
2023/04/09 02:45:25;;;;;;;29.17;23.70;;;;;;;;;;5056006;28;20236;-62
2023/04/09 02:47:52;;;;;;;31.83;24.80;;;;;;;;;;5055962;28;20195;-61
2023/04/09 02:50:19;;;;;;;39.35;25.98;;;;;;;;;;5055754;28;20247;-61
2023/04/09 02:52:47;;;;;;;32.70;25.38;;;;;;;;;;5055631;28;20281;-61
2023/04/09 02:55:14;;;;;;;33.13;26.23;;;;;;;;;;5055702;28;20189;-61
2023/04/09 02:57:41;;;;;;;34.17;25.08;;;;;;;;;;5055433;28;20695;-61
2023/04/09 03:00:09;;;;;;;39.47;25.35;;;;;;;;;;5055723;28;20537;-61
2023/04/09 03:02:36;;;;;;;35.08;25.75;;;;;;;;;;5055525;28;20196;-61
2023/04/09 03:05:03;;;;;;;36.33;27.40;;;;;;;;;;5055447;28;20233;-61
2023/04/09 03:07:30;;;;;;;39.78;26.95;;;;;;;;;;5055619;28;20251;-61
2023/04/09 03:09:58;;;;;;;37.10;27.15;;;;;;;;;;5055439;28;20571;-61
2023/04/09 03:12:25;;;;;;;33.30;25.83;;;;;;;;;;5055406;28;20656;-61
2023/04/09 03:14:52;;;;;;;35.35;27.00;;;;;;;;;;5055800;28;20190;-61
2023/04/09 03:17:19;;;;;;;34.35;24.88;;;;;;;;;;5055297;28;20545;-61
2023/04/09 03:19:46;;;;;;;37.22;24.95;;;;;;;;;;5055131;28;20316;-61
2023/04/09 03:22:13;;;;;;;36.92;25.60;;;;;;;;;;5055484;28;20728;-61
2023/04/09 03:24:40;;;;;;;34.25;25.15;;;;;;;;;;5055274;28;20220;-61
2023/04/09 03:27:08;;;;;;;33.72;24.63;;;;;;;;;;5055148;28;20229;-61
2023/04/09 03:29:35;;;;;;;34.03;25.45;;;;;;;;;;5055089;28;20186;-61
2023/04/09 03:32:02;;;;;;;32.47;25.38;;;;;;;;;;5054564;28;20199;-61
2023/04/09 03:34:29;;;;;;;38.05;26.38;;;;;;;;;;5054221;28;20607;-61
2023/04/09 03:36:56;;;;;;;36.63;26.92;;;;;;;;;;5055023;28;20198;-61
2023/04/09 03:39:23;;;;;;;34.15;24.65;;;;;;;;;;5055133;28;20217;-61
2023/04/09 03:41:50;;;;;;;28.23;23.20;;;;;;;;;;5055125;28;20194;-61
2023/04/09 03:44:18;;;;;;;31.02;24.60;;;;;;;;;;5054884;28;20223;-62
2023/04/09 03:46:45;;;;;;;39.58;26.48;;;;;;;;;;5054739;28;20186;-61
2023/04/09 03:49:12;;;;;;;33.60;25.48;;;;;;;;;;5054956;28;20533;-61
2023/04/09 03:51:39;;;;;;;37.22;27.02;;;;;;;;;;5054560;28;20728;-61
2023/04/09 03:54:06;;;;;;;33.25;24.27;;;;;;;;;;5054679;28;20353;-61
2023/04/09 03:56:33;;;;;;;32.25;25.63;;;;;;;;;;5054483;28;20201;-61
2023/04/09 03:59:00;;;;;;;34.83;24.88;;;;;;;;;;5054470;28;20227;-61
2023/04/09 04:01:28;;;;;;;33.70;25.50;;;;;;;;;;5054220;28;20283;-61
2023/04/09 04:03:55;;;;;;;28.48;23.00;;;;;;;;;;5054592;28;20201;-62
2023/04/09 04:06:22;;;;;;;35.58;24.58;;;;;;;;;;5054479;28;20217;-61
2023/04/09 04:08:49;;;;;;;30.85;23.30;;;;;;;;;;5054406;28;20202;-61
2023/04/09 04:11:16;;;;;;;32.28;24.38;;;;;;;;;;5054336;28;20585;-62
2023/04/09 04:13:43;;;;;;;37.80;26.02;;;;;;;;;;5054142;28;20740;-61
2023/04/09 04:16:10;;;;;;;30.40;24.58;;;;;;;;;;5054214;28;20239;-60
2023/04/09 04:18:38;;;;;;;36.63;26.17;;;;;;;;;;5054412;28;20222;-62
2023/04/09 04:21:05;;;;;;;31.80;25.27;;;;;;;;;;5054383;28;20193;-60
2023/04/09 04:23:34;;;;;;;32.83;25.00;;;;;;;;;;5054399;28;20215;-60
2023/04/09 04:26:02;;;;;;;35.70;25.33;;;;;;;;;;5054196;28;20200;-60
2023/04/09 04:28:29;;;;;;;29.52;24.23;;;;;;;;;;5054147;28;20189;-61
2023/04/09 04:30:56;;;;;;;38.17;27.60;;;;;;;;;;5054214;28;20193;-61
2023/04/09 04:33:22;;;;;;;35.00;27.20;;;;;;;;;;5054316;28;20275;-61
2023/04/09 04:35:51;;;;;;;32.85;25.58;;;;;;;;;;5054230;28;20211;-61
2023/04/09 04:38:18;;;;;;;34.42;25.15;;;;;;;;;;5053765;28;20696;-61
2023/04/09 04:40:45;;;;;;;33.00;24.63;;;;;;;;;;5054053;28;20192;-61
2023/04/09 04:43:12;;;;;;;35.80;25.50;;;;;;;;;;5053598;28;20247;-61
2023/04/09 04:45:38;;;;;;;33.10;24.20;;;;;;;;;;5053741;28;20193;-60
2023/04/09 04:48:05;;;;;;;36.72;25.58;;;;;;;;;;5053935;28;20581;-61
2023/04/09 04:50:32;;;;;;;37.97;26.30;;;;;;;;;;5054054;28;20619;-62
2023/04/09 04:53:01;;;;;;;38.22;27.05;;;;;;;;;;5053714;28;20671;-61
2023/04/09 04:55:27;;;;;;;44.58;25.70;;;;;;;;;;5053563;28;20186;-61
2023/04/09 04:57:54;;;;;;;41.53;26.38;;;;;;;;;;5053636;28;20313;-61
2023/04/09 05:00:21;;;;;;;37.70;27.08;;;;;;;;;;5053716;28;20210;-61
2023/04/09 05:02:48;;;;;;;47.97;27.42;;;;;;;;;;5053701;28;20567;-61
2023/04/09 05:05:15;;;;;;;34.20;25.20;;;;;;;;;;5053343;28;20697;-61
2023/04/09 05:07:42;;;;;;;47.03;27.83;;;;;;;;;;5053398;28;20719;-61
2023/04/09 05:10:11;;;;;;;44.60;28.23;;;;;;;;;;5053269;28;20200;-61
2023/04/09 05:12:38;;;;;;;38.20;24.95;;;;;;;;;;5053390;28;20187;-61
2023/04/09 05:15:05;;;;;;;38.42;27.55;;;;;;;;;;5053450;28;20228;-61
2023/04/09 05:17:32;;;;;;;40.42;27.27;;;;;;;;;;5053168;28;20648;-61
2023/04/09 05:19:59;;;;;;;42.38;28.30;;;;;;;;;;5053348;28;20281;-61
2023/04/09 05:22:26;;;;;;;43.97;28.50;;;;;;;;;;5053176;28;20194;-62
2023/04/09 05:24:53;;;;;;;56.03;28.30;;;;;;;;;;5053097;28;20675;-61
2023/04/09 05:27:24;;;;;;;43.97;29.05;;;;;;;;;;5053267;28;20191;-62
2023/04/09 05:29:51;;;;;;;44.90;27.50;;;;;;;;;;5053164;28;20206;-61
2023/04/09 05:32:18;;;;;;;51.00;24.58;;;;;;;;;;5053149;28;20284;-61
2023/04/09 05:34:46;;;;;;;34.10;24.27;;;;;;;;;;5052936;28;20200;-61
2023/04/09 05:37:13;;;;;;;50.72;26.48;;;;;;;;;;5052826;28;20664;-61
2023/04/09 05:39:40;;;;;;;61.03;24.08;;;;;;;;;;5052742;28;20778;-61
2023/04/09 05:42:07;;;;;;;34.38;22.52;;;;;;;;;;5053039;28;20191;-61
2023/04/09 05:44:35;;;;;;;28.75;21.35;;;;;;;;;;5052642;28;20227;-61
2023/04/09 05:47:02;;;;;;;28.98;20.83;;;;;;;;;;5052894;28;20205;-61
2023/04/09 05:49:29;;;;;;;42.65;20.30;;;;;;;;;;5052755;28;20228;-61
2023/04/09 05:51:56;;;;;;;29.13;21.35;;;;;;;;;;5052665;28;20232;-61
2023/04/09 05:54:23;;;;;;;23.90;20.45;;;;;;;;;;5052944;28;20186;-61
2023/04/09 05:56:51;;;;;;;27.50;21.10;;;;;;;;;;5052170;28;20248;-62
2023/04/09 05:59:18;;;;;;;28.33;21.80;;;;;;;;;;5052624;28;20222;-61
2023/04/09 06:01:46;;;;;;;33.17;19.92;;;;;;;;;;5052665;28;20197;-61
2023/04/09 06:04:13;;;;;;;34.97;20.20;;;;;;;;;;5052519;28;20186;-61
2023/04/09 06:06:40;;;;;;;29.63;20.88;;;;;;;;;;5052703;28;20273;-61
2023/04/09 06:09:07;;;;;;;36.75;20.20;;;;;;;;;;5052724;28;20191;-61
2023/04/09 06:11:34;;;;;;;40.33;21.25;;;;;;;;;;5052560;28;20196;-61
2023/04/09 06:14:01;;;;;;;28.15;20.40;;;;;;;;;;5052526;28;20278;-61
2023/04/09 06:16:28;;;;;;;28.33;21.50;;;;;;;;;;5052424;28;20560;-61
2023/04/09 06:18:56;;;;;;;40.35;21.60;;;;;;;;;;5052126;28;20217;-61
2023/04/09 06:21:23;;;;;;;26.85;19.40;;;;;;;;;;5052258;28;20651;-61
2023/04/09 06:23:52;;;;;;;49.00;24.42;;;;;;;;;;5052482;28;20194;-62
2023/04/09 06:26:19;;;;;;;31.17;20.88;;;;;;;;;;5052393;28;20203;-61
2023/04/09 06:28:46;;;;;;;30.17;22.52;;;;;;;;;;5052330;28;20225;-61
2023/04/09 06:31:13;;;;;;;28.70;20.80;;;;;;;;;;5052357;28;20201;-61
2023/04/09 06:33:40;;;;;;;33.55;22.90;;;;;;;;;;5052429;28;20190;-62
2023/04/09 06:36:08;;;;;;;36.53;22.17;;;;;;;;;;5052626;28;20254;-61
2023/04/09 06:38:35;;;;;;;38.50;20.55;;;;;;;;;;5052041;28;20292;-61
2023/04/09 06:41:02;;;;;;;29.20;20.95;;;;;;;;;;5052084;28;20216;-61
2023/04/09 06:43:29;;;;;;;30.83;21.92;;;;;;;;;;5052002;28;20253;-61
2023/04/09 06:45:56;;;;;;;30.48;22.20;;;;;;;;;;5052078;28;20549;-61
2023/04/09 06:48:23;;;;;;;39.75;23.52;;;;;;;;;;5052338;28;20286;-61
2023/04/09 06:50:50;;;;;;;27.15;21.00;;;;;;;;;;5052312;28;20187;-61
2023/04/09 06:53:18;;;;;;;33.38;22.88;;;;;;;;;;5052181;28;20281;-61
2023/04/09 06:55:45;;;;;;;25.75;20.88;;;;;;;;;;5052098;28;20190;-61
2023/04/09 06:58:12;;;;;;;33.33;21.30;;;;;;;;;;5051822;28;20198;-61
2023/04/09 07:00:39;;;;;;;28.88;21.98;;;;;;;;;;5051889;28;20539;-61
2023/04/09 07:03:07;;;;;;;28.55;22.60;;;;;;;;;;5052115;28;20277;-62
2023/04/09 07:05:34;;;;;;;36.20;24.92;;;;;;;;;;5052127;28;20646;-61
2023/04/09 07:08:01;;;;;;;35.05;23.13;;;;;;;;;;5054193;28;20190;-61
2023/04/09 07:10:29;;;;;;;31.67;22.63;;;;;;;;;;5055664;28;20281;-61
2023/04/09 07:12:56;;;;;;;34.28;23.52;;;;;;;;;;5055441;28;20452;-61
2023/04/09 07:15:23;;;;;;;39.13;24.27;;;;;;;;;;5055648;28;20197;-61
2023/04/09 07:17:50;;;;;;;41.85;24.20;;;;;;;;;;5055585;28;20705;-62
2023/04/09 07:20:17;;;;;;;35.55;24.75;;;;;;;;;;5055593;28;20224;-61
2023/04/09 07:22:44;;;;;;;36.55;25.25;;;;;;;;;;5055379;28;20282;-61
2023/04/09 07:25:11;;;;;;;39.70;25.73;;;;;;;;;;5055246;28;20190;-61
2023/04/09 07:27:39;;;;;;;36.07;24.30;;;;;;;;;;5055100;28;20190;-61
2023/04/09 07:30:07;;;;;;;38.95;26.13;;;;;;;;;;5055402;28;20883;-61
2023/04/09 07:32:34;;;;;;;36.07;25.70;;;;;;;;;;5055341;28;20281;-61
2023/04/09 07:35:01;;;;;;;38.15;25.13;;;;;;;;;;5055182;28;20447;-61
2023/04/09 07:37:28;;;;;;;37.90;25.15;;;;;;;;;;5055085;28;20191;-61
2023/04/09 07:39:55;;;;;;;36.65;24.42;;;;;;;;;;5054943;28;20240;-62
2023/04/09 07:42:22;;;;;;;34.20;25.37;;;;;;;;;;5054941;28;20801;-61
2023/04/09 07:44:50;;;;;;;36.17;25.23;;;;;;;;;;5054882;28;20561;-61
2023/04/09 07:47:17;;;;;;;39.60;26.77;;;;;;;;;;5055058;28;20453;-61
2023/04/09 07:49:44;;;;;;;34.40;24.57;;;;;;;;;;5055140;28;20455;-61
2023/04/09 07:52:11;;;;;;;36.67;25.37;;;;;;;;;;5055094;28;20957;-61
2023/04/09 07:54:38;;;;;;;39.10;27.20;;;;;;;;;;5055041;28;20459;-61
2023/04/09 07:57:05;;;;;;;35.63;23.33;;;;;;;;;;5054999;28;20488;-61
2023/04/09 07:59:32;;;;;;;40.30;27.13;;;;;;;;;;5054745;28;20488;-61
2023/04/09 08:02:01;;;;;;;41.83;27.00;;;;;;;;;;5054799;28;20544;-61
2023/04/09 08:04:28;;;;;;;38.20;26.23;;;;;;;;;;5054680;28;20475;-62
2023/04/09 08:06:55;;;;;;;47.08;26.80;;;;;;;;;;5054678;28;20453;-61
2023/04/09 08:09:22;;;;;;;39.03;26.87;;;;;;;;;;5054452;28;20195;-61
2023/04/09 08:11:49;;;;;;;40.77;25.77;;;;;;;;;;5054671;28;20449;-61
2023/04/09 08:14:17;;;;;;;38.90;26.63;;;;;;;;;;5054613;28;20449;-61
2023/04/09 08:16:44;;;;;;;34.90;25.70;;;;;;;;;;5054573;28;20775;-61
2023/04/09 08:19:13;;;;;;;37.97;26.90;;;;;;;;;;5053671;28;20555;-61
2023/04/09 08:21:42;;;;;;;36.47;26.03;;;;;;;;;;5054410;28;20887;-62
2023/04/09 08:24:10;;;;;;;37.70;26.20;;;;;;;;;;5054587;28;20460;-62
2023/04/09 08:26:37;;;;;;;41.93;28.33;;;;;;;;;;5054361;28;20781;-61
2023/04/09 08:29:04;;;;;;;44.53;28.23;;;;;;;;;;5054440;28;20492;-61
2023/04/09 08:31:31;;;;;;;40.27;27.13;;;;;;;;;;5054165;28;20477;-61
2023/04/09 08:33:58;;;;;;;39.60;27.93;;;;;;;;;;5054081;28;20865;-61
2023/04/09 08:36:26;;;;;;;40.27;27.90;;;;;;;;;;5053828;28;20539;-61
2023/04/09 08:38:54;;;;;;;42.57;26.50;;;;;;;;;;5054072;28;20477;-61
2023/04/09 08:41:23;;;;;;;42.50;28.53;;;;;;;;;;5054039;28;20488;-61
2023/04/09 08:43:50;;;;;;;40.03;26.90;;;;;;;;;;5053739;28;20473;-61
2023/04/09 08:46:17;;;;;;;38.20;27.53;;;;;;;;;;5053943;28;20820;-62
2023/04/09 08:48:45;;;;;;;39.23;27.47;;;;;;;;;;5053734;28;20459;-61
2023/04/09 08:51:14;;;;;;;38.67;27.50;;;;;;;;;;5053951;28;20449;-61
2023/04/09 08:53:44;;;;;;;36.27;25.70;;;;;;;;;;5053850;28;20460;-61
2023/04/09 08:56:12;;;;;;;35.10;25.37;;;;;;;;;;5053813;28;20449;-61
2023/04/09 08:58:41;;;;;;;35.90;26.17;;;;;;;;;;5053642;28;20912;-61
2023/04/09 09:01:18;;;;;;;37.30;27.80;;;;;;;;;;5053505;28;20495;-61
2023/04/09 09:03:53;;;;;;;35.60;26.67;;;;;;;;;;5053987;28;20463;-61
2023/04/09 09:06:22;;;;;;;36.83;26.40;;;;;;;;;;5053572;28;20448;-61
2023/04/09 09:09:00;;;;;;;37.10;25.43;;;;;;;;;;5053509;28;20457;-61
2023/04/09 09:11:29;;;;;;;37.50;26.90;;;;;;;;;;5053254;28;20456;-62
2023/04/09 09:13:59;;;;;;;34.10;24.60;;;;;;;;;;5053318;28;20911;-61
2023/04/09 09:16:27;;;;;;;35.87;25.23;;;;;;;;;;5053323;28;20452;-61
2023/04/09 09:18:55;;;;;;;31.40;25.50;;;;;;;;;;5053354;28;20830;-61
2023/04/09 09:21:22;;;;;;;36.40;25.80;;;;;;;;;;5053301;28;20531;-61
2023/04/09 09:23:50;;;;;;;37.40;26.97;;;;;;;;;;5053061;28;20968;-61
2023/04/09 09:26:19;;;;;;;38.23;27.03;;;;;;;;;;5053035;28;20460;-61
2023/04/09 09:28:47;;;;;;;38.50;27.90;;;;;;;;;;5053329;28;20441;-61
2023/04/09 09:31:14;;;;;;;38.23;25.50;;;;;;;;;;5053307;28;20820;-61
2023/04/09 09:33:41;;;;;;;40.63;27.43;;;;;;;;;;5053037;28;20457;-61
2023/04/09 09:36:08;;;;;;;37.07;27.10;;;;;;;;;;5052894;28;20484;-61
2023/04/09 09:38:35;;;;;;;35.50;26.00;;;;;;;;;;5052886;28;20457;-61
2023/04/09 09:41:16;;;;;;;33.60;25.80;;;;;;;;;;5052614;28;20491;-61
2023/04/09 09:43:45;;;;;;;34.63;26.23;;;;;;;;;;5052658;28;20915;-61
2023/04/09 09:46:12;;;;;;;34.27;25.67;;;;;;;;;;5052858;28;20448;-61
2023/04/09 09:48:39;;;;;;;34.23;25.90;;;;;;;;;;5052751;28;20887;-61
2023/04/09 09:51:09;;;;;;;32.20;23.73;;;;;;;;;;5052664;28;20888;-61
2023/04/09 09:53:37;;;;;;;29.30;23.17;;;;;;;;;;5052670;28;20449;-62
2023/04/09 09:56:05;;;;;;;28.60;23.57;;;;;;;;;;5052780;28;20476;-61
2023/04/09 09:58:33;;;;;;;30.13;23.20;;;;;;;;;;5052753;28;20879;-61
2023/04/09 10:01:02;;;;;;;33.80;24.20;;;;;;;;;;5052447;28;20488;-61
2023/04/09 10:03:30;;;;;;;35.53;25.27;;;;;;;;;;5052546;28;20452;-61
2023/04/09 10:05:58;;;;;;;28.93;22.63;;;;;;;;;;5052374;28;20526;-61
2023/04/09 10:08:26;;;;;;;34.17;24.00;;;;;;;;;;5052450;28;21001;-61
2023/04/09 10:10:53;;;;;;;31.77;23.60;;;;;;;;;;5052340;28;20877;-62
2023/04/09 10:13:25;;;;;;;28.10;21.50;;;;;;;;;;5052382;28;21026;-61
2023/04/09 10:15:52;;;;;;;32.10;23.00;;;;;;;;;;5052235;28;20955;-62
2023/04/09 10:18:21;;;;;;;29.50;22.40;;;;;;;;;;5052299;28;20808;-61
2023/04/09 10:20:51;;;;;;;25.07;20.63;;;;;;;;;;5052097;28;20485;-62
2023/04/09 10:23:22;;;;;;;26.90;21.50;;;;;;;;;;5052611;28;20449;-61
2023/04/09 10:25:49;;;;;;;26.30;21.13;;;;;;;;;;5052275;28;20451;-61
2023/04/09 10:28:17;;;;;;;26.33;21.50;;;;;;;;;;5052345;28;20445;-61
2023/04/09 10:30:45;;;;;;;27.23;21.13;;;;;;;;;;5051856;28;20544;-61
2023/04/09 10:33:15;;;;;;;28.80;22.77;;;;;;;;;;5052077;28;20495;-62
2023/04/09 10:35:47;;;;;;;25.77;20.60;;;;;;;;;;5052252;28;20798;-61
2023/04/09 10:38:14;;;;;;;24.23;20.67;;;;;;;;;;5052145;28;20855;-61
2023/04/09 10:40:42;;;;;;;27.67;22.27;;;;;;;;;;5051855;28;20586;-61
2023/04/09 10:43:10;;;;;;;26.77;21.63;;;;;;;;;;5054522;28;20475;-62
2023/04/09 10:45:41;;;;;;;27.60;20.90;;;;;;;;;;5055976;28;20456;-62
2023/04/09 10:48:12;;;;;;;30.10;21.07;;;;;;;;;;5056152;28;20460;-61
2023/04/09 10:50:40;;;;;;;25.93;20.57;;;;;;;;;;5056154;28;20452;-62
2023/04/09 10:53:08;;;;;;;28.57;20.80;;;;;;;;;;5055813;28;20507;-62
2023/04/09 10:55:36;;;;;;;28.27;21.50;;;;;;;;;;5055941;28;20455;-62
2023/04/09 10:58:04;;;;;;;24.20;19.87;;;;;;;;;;5055937;28;20449;-62
2023/04/09 11:00:31;;;;;;;24.60;20.03;;;;;;;;;;5055999;28;20890;-62
2023/04/09 11:03:19;;;;;;;21.50;18.27;;;;;;;;;;5056194;28;20552;-62
2023/04/09 11:05:48;;;;;;;22.30;17.90;;;;;;;;;;5052552;28;20551;-62
2023/04/09 11:08:17;;;;;;;23.53;18.93;;;;;;;;;;5055740;28;20452;-62
2023/04/09 11:10:45;;;;;;;24.03;20.13;;;;;;;;;;5055620;28;20528;-61
2023/04/09 11:13:12;;;;;;;22.50;18.40;;;;;;;;;;5055840;28;20444;-62
2023/04/09 11:15:39;;;;;;;27.10;20.83;;;;;;;;;;5055312;28;20796;-62
2023/04/09 11:18:08;;;;;;;29.33;20.60;;;;;;;;;;5055308;28;20449;-62
2023/04/09 11:20:35;;;;;;;25.23;19.20;;;;;;;;;;5055362;28;20546;-61
2023/04/09 11:23:02;;;;;;;23.07;19.40;;;;;;;;;;5055358;28;20449;-62
2023/04/09 11:25:31;;;;;;;21.53;18.73;;;;;;;;;;5055513;28;20531;-62
2023/04/09 11:27:58;;;;;;;24.47;18.40;;;;;;;;;;5055299;28;20876;-62
2023/04/09 11:30:26;;;;;;;25.13;20.43;;;;;;;;;;5054689;28;20535;-61
2023/04/09 11:32:53;;;;;;;22.10;17.40;;;;;;;;;;5055202;28;20457;-62
2023/04/09 11:35:21;;;;;;;23.97;18.90;;;;;;;;;;5055173;28;20535;-62
2023/04/09 11:37:48;;;;;;;25.67;19.37;;;;;;;;;;5055605;28;20453;-62
2023/04/09 11:40:16;;;;;;;23.47;18.80;;;;;;;;;;5055145;28;20631;-62
2023/04/09 11:42:45;;;;;;;24.70;18.77;;;;;;;;;;5055299;28;20455;-62
2023/04/09 11:45:12;;;;;;;23.03;20.43;;;;;;;;;;5054823;28;20508;-62
2023/04/09 11:47:40;;;;;;;25.43;20.50;;;;;;;;;;5054881;28;20540;-62
2023/04/09 11:50:08;;;;;;;22.40;19.33;;;;;;;;;;5054891;28;20457;-62
2023/04/09 11:52:35;;;;;;;24.70;18.70;;;;;;;;;;5054939;28;20555;-62
2023/04/09 11:55:03;;;;;;;21.17;17.87;;;;;;;;;;5053475;28;20535;-61
2023/04/09 11:57:37;;;;;;;23.30;19.10;;;;;;;;;;5054832;28;20444;-62
2023/04/09 12:00:07;;;;;;;21.80;19.27;;;;;;;;;;5054654;28;20840;-62
2023/04/09 12:02:35;;;;;;;24.57;20.67;;;;;;;;;;5054596;28;20963;-62
2023/04/09 12:05:03;;;;;;;21.53;18.00;;;;;;;;;;5054817;28;20547;-62
2023/04/09 12:07:32;;;;;;;20.70;18.47;;;;;;;;;;5054688;28;20931;-62
2023/04/09 12:10:03;;;;;;;20.80;16.57;;;;;;;;;;5054603;28;21011;-62
2023/04/09 12:12:30;;;;;;;19.17;16.57;;;;;;;;;;5054442;28;20527;-62
2023/04/09 12:14:58;;;;;;;19.60;17.37;;;;;;;;;;5054420;28;20531;-62
2023/04/09 12:17:26;;;;;;;19.90;16.70;;;;;;;;;;5054347;28;20453;-62
2023/04/09 12:19:53;;;;;;;21.30;17.57;;;;;;;;;;5054428;28;20456;-62
2023/04/09 12:22:20;;;;;;;21.37;17.00;;;;;;;;;;5054641;28;20548;-62
2023/04/09 12:24:47;;;;;;;19.33;16.40;;;;;;;;;;5054517;28;20460;-62
2023/04/09 12:27:14;;;;;;;18.10;16.20;;;;;;;;;;5054138;28;20535;-62
2023/04/09 12:29:41;;;;;;;18.73;16.50;;;;;;;;;;5054085;28;20489;-62
2023/04/09 12:32:08;;;;;;;18.97;16.93;;;;;;;;;;5054316;28;20555;-62
2023/04/09 12:34:36;;;;;;;17.90;16.00;;;;;;;;;;5054250;28;20485;-62
2023/04/09 12:37:03;;;;;;;17.30;15.37;;;;;;;;;;5054138;28;20453;-62
2023/04/09 12:39:30;;;;;;;19.20;17.20;;;;;;;;;;5053882;28;20966;-62
2023/04/09 12:41:57;;;;;;;18.50;16.50;;;;;;;;;;5053778;28;20516;-62
2023/04/09 12:44:25;;;;;;;17.80;15.90;;;;;;;;;;5053727;28;20478;-62
2023/04/09 12:46:52;;;;;;;17.70;15.67;;;;;;;;;;5053787;28;20526;-62
2023/04/09 12:49:20;;;;;;;19.23;16.20;;;;;;;;;;5054006;28;20808;-62
2023/04/09 12:51:48;;;;;;;18.90;15.70;;;;;;;;;;5053854;28;20531;-62
2023/04/09 12:54:15;;;;;;;18.07;15.87;;;;;;;;;;5053692;28;20441;-62
2023/04/09 12:56:42;;;;;;;17.13;14.87;;;;;;;;;;5053522;28;20441;-62
2023/04/09 12:59:09;;;;;;;17.73;15.83;;;;;;;;;;5053727;28;20447;-62
2023/04/09 13:01:36;;;;;;;18.87;16.43;;;;;;;;;;5053667;28;20916;-62
2023/04/09 13:04:03;;;;;;;17.60;14.90;;;;;;;;;;5053662;28;20471;-62
2023/04/09 13:06:30;;;;;;;19.30;16.10;;;;;;;;;;5053400;28;20544;-62
2023/04/09 13:08:59;;;;;;;18.07;15.30;;;;;;;;;;5053389;28;20458;-62
2023/04/09 13:11:26;;;;;;;16.93;15.13;;;;;;;;;;5053209;28;20999;-62
2023/04/09 13:13:53;;;;;;;17.47;15.67;;;;;;;;;;5053578;28;20449;-62
2023/04/09 13:16:20;;;;;;;17.20;15.40;;;;;;;;;;5053531;28;20453;-62
2023/04/09 13:18:47;;;;;;;16.60;14.80;;;;;;;;;;5053364;28;20940;-62
2023/04/09 13:21:17;;;;;;;17.33;15.40;;;;;;;;;;5053085;28;20480;-62
2023/04/09 13:23:44;;;;;;;18.03;15.90;;;;;;;;;;5053225;28;20449;-62
2023/04/09 13:26:12;;;;;;;17.10;14.33;;;;;;;;;;5053618;28;20473;-62
2023/04/09 13:28:40;;;;;;;18.47;15.30;;;;;;;;;;5053248;28;20541;-62
2023/04/09 13:31:07;;;;;;;17.40;15.57;;;;;;;;;;5053281;28;20452;-62
2023/04/09 13:33:34;;;;;;;16.63;14.93;;;;;;;;;;5052981;28;20541;-62
2023/04/09 13:36:01;;;;;;;18.27;14.33;;;;;;;;;;5053059;28;20449;-62
2023/04/09 13:38:28;;;;;;;17.40;15.63;;;;;;;;;;5052868;28;20943;-62
2023/04/09 13:40:55;;;;;;;19.83;17.70;;;;;;;;;;5052960;28;20572;-62
2023/04/09 13:43:26;;;;;;;18.63;15.40;;;;;;;;;;5052898;28;20478;-62
2023/04/09 13:45:53;;;;;;;19.77;16.20;;;;;;;;;;5052853;28;20798;-62
2023/04/09 13:48:20;;;;;;;19.17;15.60;;;;;;;;;;5052921;28;20500;-62
2023/04/09 13:50:48;;;;;;;17.50;14.57;;;;;;;;;;5052782;28;20807;-62
2023/04/09 13:53:15;;;;;;;14.90;13.40;;;;;;;;;;5052623;28;20455;-62
2023/04/09 13:55:42;;;;;;;18.43;16.27;;;;;;;;;;5052838;28;20869;-62
2023/04/09 13:58:09;;;;;;;17.57;14.83;;;;;;;;;;5052747;28;20539;-62
2023/04/09 14:00:37;;;;;;;18.10;15.73;;;;;;;;;;5052591;28;20566;-62
2023/04/09 14:03:04;;;;;;;17.70;15.80;;;;;;;;;;5052510;28;20455;-62
2023/04/09 14:05:32;;;;;;;18.53;15.47;;;;;;;;;;5052464;28;20510;-62
2023/04/09 14:07:59;;;;;;;17.43;15.60;;;;;;;;;;5052584;28;20454;-62
2023/04/09 14:10:26;;;;;;;18.60;16.60;;;;;;;;;;5052650;28;20448;-62
2023/04/09 14:12:53;;;;;;;17.70;15.17;;;;;;;;;;5052586;28;20528;-62
2023/04/09 14:15:20;;;;;;;17.30;15.40;;;;;;;;;;5052334;28;20537;-62
2023/04/09 14:17:49;;;;;;;17.87;15.23;;;;;;;;;;5051445;28;20452;-62
2023/04/09 14:20:18;;;;;;;16.63;14.47;;;;;;;;;;5052171;28;20448;-62